Time;durP1;ratioP1;P1;durP2;ratioP2;P2;SDS_P1;SDS_P2;PMS_P1;PMS_P2;Temp;Humidity;BMP_temperature;BMP_pressure;BME280_temperature;BME280_humidity;BME280_pressure;Samples;Min_cycle;Max_cycle;Signal;HPM_P1;HPM_P2
2022/03/04 00:01:21;;;;;;;31.40;13.02;;;;;;;;;;4987294;28;106092;-69
2022/03/04 00:03:48;;;;;;;26.92;12.48;;;;;;;;;;4981315;28;107044;-69
2022/03/04 00:06:14;;;;;;;27.00;12.73;;;;;;;;;;4990087;28;106318;-69
2022/03/04 00:08:41;;;;;;;30.13;12.80;;;;;;;;;;4988372;28;105926;-69
2022/03/04 00:11:07;;;;;;;27.02;12.68;;;;;;;;;;4987866;28;107636;-70
2022/03/04 00:13:34;;;;;;;28.13;12.57;;;;;;;;;;4988904;28;107367;-67
2022/03/04 00:16:00;;;;;;;27.70;12.65;;;;;;;;;;4991229;28;106185;-67
2022/03/04 00:18:27;;;;;;;26.00;12.43;;;;;;;;;;4988091;28;106773;-69
2022/03/04 00:20:54;;;;;;;28.52;13.70;;;;;;;;;;4983579;28;105863;-70
2022/03/04 00:23:20;;;;;;;28.02;12.70;;;;;;;;;;4987006;28;105653;-70
2022/03/04 00:25:47;;;;;;;27.98;12.80;;;;;;;;;;4987923;28;106416;-69
2022/03/04 00:28:13;;;;;;;31.40;12.82;;;;;;;;;;4987717;28;106914;-68
2022/03/04 00:30:39;;;;;;;27.13;12.48;;;;;;;;;;4987675;28;106265;-68
2022/03/04 00:33:06;;;;;;;29.35;13.38;;;;;;;;;;4985201;28;106798;-68
2022/03/04 00:35:32;;;;;;;26.05;13.10;;;;;;;;;;4989053;28;105676;-69
2022/03/04 00:37:59;;;;;;;29.92;13.93;;;;;;;;;;4989637;28;106711;-68
2022/03/04 00:40:25;;;;;;;31.08;14.15;;;;;;;;;;4988901;28;106353;-67
2022/03/04 00:42:51;;;;;;;26.90;12.73;;;;;;;;;;4988266;28;106412;-67
2022/03/04 00:45:18;;;;;;;32.10;13.45;;;;;;;;;;4969126;28;109277;-68
2022/03/04 00:47:44;;;;;;;30.52;13.65;;;;;;;;;;4987723;28;106224;-67
2022/03/04 00:50:10;;;;;;;33.05;14.52;;;;;;;;;;4965449;28;108611;-67
2022/03/04 00:52:37;;;;;;;27.65;12.93;;;;;;;;;;4986143;28;107774;-68
2022/03/04 00:55:04;;;;;;;32.03;13.57;;;;;;;;;;4988424;28;105906;-67
2022/03/04 00:57:30;;;;;;;35.30;13.80;;;;;;;;;;4989600;28;106132;-67
2022/03/04 00:59:56;;;;;;;30.08;13.85;;;;;;;;;;4987661;28;106308;-67
2022/03/04 01:02:23;;;;;;;28.38;12.68;;;;;;;;;;4982424;28;107615;-67
2022/03/04 01:04:49;;;;;;;30.52;14.18;;;;;;;;;;4977347;28;107851;-67
2022/03/04 01:07:16;;;;;;;32.97;14.13;;;;;;;;;;4979139;28;105782;-67
2022/03/04 01:09:43;;;;;;;33.30;12.93;;;;;;;;;;4970931;28;106067;-70
2022/03/04 01:12:10;;;;;;;27.92;12.63;;;;;;;;;;4986691;28;106390;-67
2022/03/04 01:14:36;;;;;;;31.45;13.63;;;;;;;;;;4987041;28;105846;-68
2022/03/04 01:17:03;;;;;;;34.78;15.63;;;;;;;;;;4987714;28;105958;-67
2022/03/04 01:19:29;;;;;;;33.20;14.30;;;;;;;;;;4991108;28;108160;-68
2022/03/04 01:21:56;;;;;;;33.25;14.02;;;;;;;;;;4986895;28;106848;-67
2022/03/04 01:24:22;;;;;;;30.45;13.55;;;;;;;;;;4986971;28;107885;-67
2022/03/04 01:26:48;;;;;;;29.88;13.68;;;;;;;;;;4984133;28;107151;-67
2022/03/04 01:29:15;;;;;;;31.95;13.68;;;;;;;;;;4986804;28;106653;-69
2022/03/04 01:31:41;;;;;;;32.85;14.23;;;;;;;;;;4987341;28;107748;-69
2022/03/04 01:34:07;;;;;;;41.55;15.25;;;;;;;;;;4987488;28;106282;-67
2022/03/04 01:36:35;;;;;;;41.45;13.93;;;;;;;;;;4987716;28;107245;-67
2022/03/04 01:39:02;;;;;;;30.67;13.57;;;;;;;;;;4985369;28;106859;-68
2022/03/04 01:41:28;;;;;;;32.92;13.23;;;;;;;;;;4989912;28;106087;-68
2022/03/04 01:43:55;;;;;;;30.55;13.57;;;;;;;;;;4980340;28;106689;-67
2022/03/04 01:46:24;;;;;;;29.38;12.90;;;;;;;;;;4979681;28;106560;-67
2022/03/04 01:48:51;;;;;;;31.70;13.70;;;;;;;;;;4967183;28;106801;-68
2022/03/04 01:51:17;;;;;;;29.17;13.73;;;;;;;;;;4990081;28;107077;-67
2022/03/04 01:53:44;;;;;;;39.30;14.48;;;;;;;;;;4971401;28;106410;-67
2022/03/04 01:56:11;;;;;;;36.88;13.88;;;;;;;;;;4990720;28;106752;-67
2022/03/04 01:58:38;;;;;;;30.58;13.68;;;;;;;;;;4990386;28;106662;-67
2022/03/04 02:01:05;;;;;;;33.47;13.20;;;;;;;;;;4990574;28;106040;-67
2022/03/04 02:03:35;;;;;;;29.05;13.30;;;;;;;;;;4993652;28;106798;-67
2022/03/04 02:06:02;;;;;;;32.17;14.60;;;;;;;;;;4913671;28;108462;-68
2022/03/04 02:08:28;;;;;;;35.17;13.98;;;;;;;;;;4911738;28;106745;-67
2022/03/04 02:10:55;;;;;;;33.05;13.85;;;;;;;;;;4909671;28;107328;-67
2022/03/04 02:13:22;;;;;;;35.08;13.88;;;;;;;;;;4912482;28;108004;-69
2022/03/04 02:15:48;;;;;;;29.77;13.00;;;;;;;;;;4912334;28;106469;-70
2022/03/04 02:18:16;;;;;;;29.90;13.85;;;;;;;;;;4911117;28;108562;-69
2022/03/04 02:20:44;;;;;;;32.03;13.43;;;;;;;;;;4913392;28;106530;-69
2022/03/04 02:23:14;;;;;;;29.33;12.80;;;;;;;;;;4911587;28;106114;-69
2022/03/04 02:25:41;;;;;;;38.65;14.73;;;;;;;;;;4915124;28;107629;-69
2022/03/04 02:28:07;;;;;;;32.03;13.52;;;;;;;;;;4915076;28;107282;-68
2022/03/04 02:30:34;;;;;;;33.42;13.30;;;;;;;;;;4912283;28;106488;-68
2022/03/04 02:33:00;;;;;;;31.92;13.30;;;;;;;;;;4917678;28;105803;-68
2022/03/04 02:35:27;;;;;;;29.88;12.75;;;;;;;;;;4919014;28;106558;-68
2022/03/04 02:37:54;;;;;;;33.67;14.27;;;;;;;;;;4912016;28;107563;-67
2022/03/04 02:40:20;;;;;;;31.13;14.10;;;;;;;;;;4910443;28;106374;-67
2022/03/04 02:42:46;;;;;;;32.75;13.57;;;;;;;;;;4914787;28;106875;-67
2022/03/04 02:45:13;;;;;;;32.50;14.77;;;;;;;;;;4912335;28;107378;-67
2022/03/04 02:47:39;;;;;;;33.72;13.55;;;;;;;;;;4915872;28;106138;-69
2022/03/04 02:50:06;;;;;;;29.58;13.02;;;;;;;;;;4911009;28;107391;-69
2022/03/04 02:52:32;;;;;;;34.50;13.73;;;;;;;;;;4911051;28;106484;-69
2022/03/04 02:54:58;;;;;;;31.42;13.57;;;;;;;;;;4911042;28;106648;-68
2022/03/04 02:57:25;;;;;;;34.53;14.55;;;;;;;;;;4915977;28;107301;-68
2022/03/04 02:59:52;;;;;;;31.98;13.30;;;;;;;;;;4911719;28;106281;-68
2022/03/04 03:02:18;;;;;;;28.48;12.88;;;;;;;;;;4909929;28;106948;-67
2022/03/04 03:04:45;;;;;;;30.30;12.85;;;;;;;;;;4912250;28;107003;-67
2022/03/04 03:07:11;;;;;;;29.00;13.77;;;;;;;;;;4920039;28;106027;-67
2022/03/04 03:09:37;;;;;;;30.08;13.00;;;;;;;;;;4920335;28;106350;-67
2022/03/04 03:12:04;;;;;;;36.00;13.45;;;;;;;;;;4911222;28;106241;-67
2022/03/04 03:14:30;;;;;;;31.00;13.73;;;;;;;;;;4911195;28;106065;-67
2022/03/04 03:16:57;;;;;;;29.10;12.98;;;;;;;;;;4914437;28;107073;-67
2022/03/04 03:19:24;;;;;;;34.92;14.57;;;;;;;;;;4910646;28;106261;-68
2022/03/04 03:21:50;;;;;;;31.65;13.57;;;;;;;;;;4906776;28;106237;-67
2022/03/04 03:24:17;;;;;;;28.98;13.10;;;;;;;;;;4916926;28;108199;-67
2022/03/04 03:26:43;;;;;;;34.55;14.15;;;;;;;;;;4911090;28;107035;-68
2022/03/04 03:29:09;;;;;;;34.65;14.20;;;;;;;;;;4913588;28;106583;-68
2022/03/04 03:31:36;;;;;;;31.90;13.65;;;;;;;;;;4910698;28;106531;-67
2022/03/04 03:34:03;;;;;;;29.65;13.63;;;;;;;;;;4912539;28;106668;-67
2022/03/04 03:36:30;;;;;;;30.38;13.77;;;;;;;;;;4910770;28;107493;-67
2022/03/04 03:38:57;;;;;;;31.02;13.73;;;;;;;;;;4913888;28;107486;-67
2022/03/04 03:41:23;;;;;;;29.92;13.10;;;;;;;;;;4910082;28;107076;-67
2022/03/04 03:43:49;;;;;;;33.22;14.13;;;;;;;;;;4909124;28;107645;-67
2022/03/04 03:46:16;;;;;;;29.02;13.48;;;;;;;;;;4909876;28;107540;-67
2022/03/04 03:48:42;;;;;;;33.40;14.23;;;;;;;;;;4916645;28;106866;-67
2022/03/04 03:51:09;;;;;;;36.28;13.57;;;;;;;;;;4915565;28;106365;-67
2022/03/04 03:53:35;;;;;;;35.60;14.38;;;;;;;;;;4910931;28;107353;-67
2022/03/04 03:56:02;;;;;;;29.98;13.27;;;;;;;;;;4909407;28;107401;-67
2022/03/04 03:58:28;;;;;;;30.80;12.93;;;;;;;;;;4911448;28;106475;-67
2022/03/04 04:00:55;;;;;;;33.30;14.05;;;;;;;;;;4909479;28;106421;-67
2022/03/04 04:03:22;;;;;;;34.20;13.32;;;;;;;;;;4915450;28;106775;-67
2022/03/04 04:05:48;;;;;;;38.22;14.85;;;;;;;;;;4909202;28;106307;-67
2022/03/04 04:08:15;;;;;;;27.88;12.57;;;;;;;;;;4914649;28;107102;-67
2022/03/04 04:10:42;;;;;;;33.28;15.02;;;;;;;;;;4909738;28;109917;-67
2022/03/04 04:13:08;;;;;;;32.10;13.18;;;;;;;;;;4883385;28;106609;-67
2022/03/04 04:15:35;;;;;;;34.45;13.80;;;;;;;;;;4909569;28;107582;-67
2022/03/04 04:18:01;;;;;;;31.60;13.68;;;;;;;;;;4917428;28;106695;-67
2022/03/04 04:20:27;;;;;;;31.38;13.95;;;;;;;;;;4911431;28;106515;-67
2022/03/04 04:22:54;;;;;;;31.17;14.13;;;;;;;;;;4910237;28;106619;-67
2022/03/04 04:25:20;;;;;;;31.20;13.00;;;;;;;;;;4910506;28;106861;-67
2022/03/04 04:27:46;;;;;;;35.78;13.77;;;;;;;;;;4913015;28;106257;-67
2022/03/04 04:30:13;;;;;;;31.35;13.52;;;;;;;;;;4908650;28;107285;-67
2022/03/04 04:32:39;;;;;;;32.90;13.57;;;;;;;;;;4909960;28;108323;-67
2022/03/04 04:35:06;;;;;;;32.50;15.00;;;;;;;;;;4917113;28;106266;-67
2022/03/04 04:37:32;;;;;;;36.45;13.95;;;;;;;;;;4908559;28;106595;-67
2022/03/04 04:39:59;;;;;;;30.55;13.73;;;;;;;;;;4914191;28;106965;-67
2022/03/04 04:42:25;;;;;;;31.95;13.45;;;;;;;;;;4909143;28;106944;-67
2022/03/04 04:44:52;;;;;;;32.65;14.75;;;;;;;;;;4914314;28;107531;-67
2022/03/04 04:47:19;;;;;;;29.13;12.98;;;;;;;;;;4909543;28;106914;-67
2022/03/04 04:49:45;;;;;;;31.92;13.43;;;;;;;;;;4911484;28;107029;-67
2022/03/04 04:52:11;;;;;;;33.63;14.50;;;;;;;;;;4909071;28;106305;-67
2022/03/04 04:54:38;;;;;;;30.75;13.65;;;;;;;;;;4908824;28;106756;-67
2022/03/04 04:57:04;;;;;;;29.88;14.25;;;;;;;;;;4910982;28;106213;-67
2022/03/04 04:59:31;;;;;;;37.15;15.57;;;;;;;;;;4909615;28;107209;-67
2022/03/04 05:01:57;;;;;;;32.88;13.50;;;;;;;;;;4917555;28;106933;-67
2022/03/04 05:04:24;;;;;;;33.97;14.30;;;;;;;;;;4909088;28;105988;-67
2022/03/04 05:06:50;;;;;;;34.78;14.43;;;;;;;;;;4909826;28;106822;-67
2022/03/04 05:09:17;;;;;;;33.92;14.38;;;;;;;;;;4911634;28;107662;-67
2022/03/04 05:11:43;;;;;;;34.03;14.82;;;;;;;;;;4912850;28;106385;-67
2022/03/04 05:14:10;;;;;;;30.70;14.30;;;;;;;;;;4908620;28;106722;-67
2022/03/04 05:16:36;;;;;;;32.20;14.32;;;;;;;;;;4913355;28;107938;-67
2022/03/04 05:19:03;;;;;;;36.05;14.52;;;;;;;;;;4915136;28;106395;-67
2022/03/04 05:21:29;;;;;;;31.63;12.88;;;;;;;;;;4909378;28;107742;-66
2022/03/04 05:24:02;;;;;;;33.97;13.88;;;;;;;;;;4908810;28;106876;-67
2022/03/04 05:26:30;;;;;;;35.63;14.52;;;;;;;;;;4909084;28;105881;-67
2022/03/04 05:28:57;;;;;;;35.83;14.20;;;;;;;;;;4909158;28;109211;-66
2022/03/04 05:31:24;;;;;;;33.65;14.13;;;;;;;;;;4909523;28;105987;-67
2022/03/04 05:33:51;;;;;;;29.75;13.75;;;;;;;;;;4909409;28;106649;-67
2022/03/04 05:36:18;;;;;;;35.67;15.07;;;;;;;;;;4918480;28;108320;-67
2022/03/04 05:38:44;;;;;;;33.17;14.02;;;;;;;;;;4912282;28;106943;-67
2022/03/04 05:41:10;;;;;;;34.78;13.98;;;;;;;;;;4908495;28;107609;-67
2022/03/04 05:43:38;;;;;;;29.75;14.10;;;;;;;;;;4909694;28;107149;-67
2022/03/04 05:46:04;;;;;;;35.28;14.25;;;;;;;;;;4912303;28;107145;-67
2022/03/04 05:48:31;;;;;;;40.22;14.93;;;;;;;;;;4909165;28;107335;-66
2022/03/04 05:50:58;;;;;;;33.65;13.25;;;;;;;;;;4908682;28;106582;-67
2022/03/04 05:53:24;;;;;;;32.47;14.23;;;;;;;;;;4907980;28;106985;-67
2022/03/04 05:55:51;;;;;;;31.60;14.77;;;;;;;;;;4909081;28;107553;-67
2022/03/04 05:58:17;;;;;;;35.10;14.02;;;;;;;;;;4912165;28;105919;-67
2022/03/04 06:00:44;;;;;;;33.00;13.90;;;;;;;;;;4912653;28;105990;-67
2022/03/04 06:03:10;;;;;;;34.63;14.80;;;;;;;;;;4910581;28;110495;-67
2022/03/04 06:05:37;;;;;;;32.30;14.77;;;;;;;;;;4910124;28;106803;-67
2022/03/04 06:08:03;;;;;;;33.05;14.60;;;;;;;;;;4906519;28;107733;-69
2022/03/04 06:10:29;;;;;;;35.60;15.20;;;;;;;;;;4909049;28;106372;-69
2022/03/04 06:12:56;;;;;;;35.97;15.48;;;;;;;;;;4909702;28;106264;-68
2022/03/04 06:15:22;;;;;;;36.88;15.13;;;;;;;;;;4908553;28;107398;-69
2022/03/04 06:17:49;;;;;;;37.47;14.85;;;;;;;;;;4909124;28;107115;-67
2022/03/04 06:20:16;;;;;;;33.95;14.10;;;;;;;;;;4908244;28;107310;-67
2022/03/04 06:22:43;;;;;;;30.92;14.30;;;;;;;;;;4916078;28;107061;-65
2022/03/04 06:25:10;;;;;;;33.05;14.13;;;;;;;;;;4907732;28;107449;-69
2022/03/04 06:27:37;;;;;;;36.10;13.85;;;;;;;;;;4918523;28;106583;-66
2022/03/04 06:30:04;;;;;;;36.28;14.82;;;;;;;;;;4908332;28;106520;-68
2022/03/04 06:32:30;;;;;;;32.33;15.23;;;;;;;;;;4909887;28;106791;-68
2022/03/04 06:35:00;;;;;;;35.70;14.85;;;;;;;;;;4906785;28;107772;-67
2022/03/04 06:37:26;;;;;;;38.35;15.35;;;;;;;;;;4910733;28;106722;-67
2022/03/04 06:39:52;;;;;;;37.03;15.32;;;;;;;;;;4917403;28;107299;-67
2022/03/04 06:42:19;;;;;;;36.05;16.08;;;;;;;;;;4914964;28;107456;-67
2022/03/04 06:44:45;;;;;;;38.92;15.73;;;;;;;;;;4917283;28;106594;-68
2022/03/04 06:47:12;;;;;;;39.33;15.00;;;;;;;;;;4892945;28;107525;-68
2022/03/04 06:49:38;;;;;;;37.92;14.77;;;;;;;;;;4913909;28;106768;-68
2022/03/04 06:52:05;;;;;;;34.35;15.23;;;;;;;;;;4910659;28;106770;-67
2022/03/04 06:54:33;;;;;;;30.67;14.38;;;;;;;;;;4911027;28;107260;-67
2022/03/04 06:57:00;;;;;;;34.92;15.27;;;;;;;;;;4910903;28;107227;-67
2022/03/04 06:59:26;;;;;;;38.78;15.38;;;;;;;;;;4910173;28;106838;-68
2022/03/04 07:01:52;;;;;;;39.10;15.90;;;;;;;;;;4908456;28;107468;-68
2022/03/04 07:04:19;;;;;;;35.60;14.70;;;;;;;;;;4912375;28;107017;-68
2022/03/04 07:06:45;;;;;;;34.92;14.63;;;;;;;;;;4914649;28;106275;-68
2022/03/04 07:09:12;;;;;;;39.28;15.85;;;;;;;;;;4922703;28;107050;-68
2022/03/04 07:11:38;;;;;;;37.22;14.15;;;;;;;;;;4911882;28;106688;-68
2022/03/04 07:14:05;;;;;;;36.38;15.73;;;;;;;;;;4911822;28;107197;-67
2022/03/04 07:16:31;;;;;;;41.95;16.02;;;;;;;;;;4910505;28;107205;-67
2022/03/04 07:18:58;;;;;;;35.65;14.63;;;;;;;;;;4914184;28;106751;-67
2022/03/04 07:21:24;;;;;;;32.20;13.75;;;;;;;;;;4915077;28;108084;-68
2022/03/04 07:23:55;;;;;;;36.72;14.32;;;;;;;;;;4909684;28;106049;-67
2022/03/04 07:26:22;;;;;;;38.33;15.35;;;;;;;;;;4921821;28;105938;-67
2022/03/04 07:28:48;;;;;;;32.95;13.75;;;;;;;;;;4910982;28;105982;-67
2022/03/04 07:31:15;;;;;;;40.47;14.50;;;;;;;;;;4912845;28;106898;-67
2022/03/04 07:33:42;;;;;;;33.28;14.95;;;;;;;;;;4910700;28;107507;-67
2022/03/04 07:36:08;;;;;;;36.05;15.85;;;;;;;;;;4910476;28;106557;-67
2022/03/04 07:38:34;;;;;;;35.00;14.63;;;;;;;;;;4915255;28;105997;-67
2022/03/04 07:41:01;;;;;;;32.97;14.32;;;;;;;;;;4911526;28;107207;-66
2022/03/04 07:43:28;;;;;;;29.80;13.45;;;;;;;;;;4915916;28;108510;-68
2022/03/04 07:45:54;;;;;;;32.75;14.18;;;;;;;;;;4913774;28;106585;-67
2022/03/04 07:48:21;;;;;;;32.38;13.77;;;;;;;;;;4917598;28;107398;-70
2022/03/04 07:50:47;;;;;;;30.90;13.43;;;;;;;;;;4910748;28;108285;-67
2022/03/04 07:53:13;;;;;;;30.90;12.55;;;;;;;;;;4910310;28;107341;-70
2022/03/04 07:55:40;;;;;;;32.70;13.95;;;;;;;;;;4915902;28;106017;-68
2022/03/04 07:58:06;;;;;;;29.20;13.13;;;;;;;;;;4910275;28;107066;-66
2022/03/04 08:00:33;;;;;;;28.48;13.25;;;;;;;;;;4917170;28;106946;-69
2022/03/04 08:02:59;;;;;;;28.63;13.50;;;;;;;;;;4911210;28;106034;-66
2022/03/04 08:05:26;;;;;;;34.10;13.35;;;;;;;;;;4905118;28;107773;-67
2022/03/04 08:07:53;;;;;;;31.83;13.50;;;;;;;;;;4911822;28;110036;-69
2022/03/04 08:10:20;;;;;;;27.27;12.10;;;;;;;;;;4919403;28;105610;-70
2022/03/04 08:12:46;;;;;;;31.75;13.75;;;;;;;;;;4913390;28;107706;-69
2022/03/04 08:15:13;;;;;;;25.73;13.07;;;;;;;;;;4917130;28;107653;-67
2022/03/04 08:17:40;;;;;;;25.95;12.93;;;;;;;;;;4911122;28;106969;-67
2022/03/04 08:20:07;;;;;;;30.33;13.88;;;;;;;;;;4909857;28;107397;-67
2022/03/04 08:22:33;;;;;;;26.60;13.13;;;;;;;;;;4909701;28;106078;-67
2022/03/04 08:24:59;;;;;;;31.60;13.93;;;;;;;;;;4909470;28;106306;-67
2022/03/04 08:27:26;;;;;;;26.27;12.85;;;;;;;;;;4907497;28;107342;-67
2022/03/04 08:29:52;;;;;;;32.15;13.52;;;;;;;;;;4917434;28;106166;-67
2022/03/04 08:32:22;;;;;;;30.48;13.38;;;;;;;;;;4914904;28;106861;-67
2022/03/04 08:34:51;;;;;;;25.40;12.90;;;;;;;;;;4907795;28;106571;-68
2022/03/04 08:37:18;;;;;;;31.83;13.85;;;;;;;;;;4907067;28;107331;-67
2022/03/04 08:39:44;;;;;;;26.05;13.00;;;;;;;;;;4909797;28;106708;-68
2022/03/04 08:42:11;;;;;;;27.65;12.88;;;;;;;;;;4906419;28;107410;-68
2022/03/04 08:44:37;;;;;;;26.67;12.98;;;;;;;;;;4905420;28;108725;-67
2022/03/04 08:47:04;;;;;;;30.23;13.30;;;;;;;;;;4918275;28;106427;-67
2022/03/04 08:49:31;;;;;;;31.23;14.05;;;;;;;;;;4910040;28;106040;-67
2022/03/04 08:51:58;;;;;;;26.27;12.45;;;;;;;;;;4914471;28;106959;-67
2022/03/04 08:54:25;;;;;;;30.35;13.20;;;;;;;;;;4912937;28;107393;-67
2022/03/04 08:56:52;;;;;;;28.08;13.13;;;;;;;;;;4917749;28;107270;-67
2022/03/04 08:59:18;;;;;;;27.58;13.10;;;;;;;;;;4907194;28;108028;-67
2022/03/04 09:01:45;;;;;;;24.67;12.88;;;;;;;;;;4902764;28;106674;-67
2022/03/04 09:04:14;;;;;;;27.17;13.70;;;;;;;;;;4907540;28;106699;-67
2022/03/04 09:06:41;;;;;;;33.67;13.73;;;;;;;;;;4906981;28;106920;-68
2022/03/04 09:09:07;;;;;;;29.05;12.45;;;;;;;;;;4904354;28;106675;-67
2022/03/04 09:11:33;;;;;;;27.40;13.25;;;;;;;;;;4909191;28;108005;-67
2022/03/04 09:14:01;;;;;;;29.02;13.70;;;;;;;;;;4910249;28;107358;-68
2022/03/04 09:16:31;;;;;;;28.48;12.75;;;;;;;;;;4910234;28;107141;-67
2022/03/04 09:18:57;;;;;;;28.17;12.98;;;;;;;;;;4914292;28;107984;-67
2022/03/04 09:21:24;;;;;;;26.30;12.85;;;;;;;;;;4911970;28;106199;-68
2022/03/04 09:23:50;;;;;;;26.08;13.15;;;;;;;;;;4903822;28;107553;-68
2022/03/04 09:26:16;;;;;;;31.55;14.05;;;;;;;;;;4900031;28;107355;-69
2022/03/04 09:28:43;;;;;;;27.08;12.95;;;;;;;;;;4904661;28;106061;-67
2022/03/04 09:31:10;;;;;;;27.38;13.32;;;;;;;;;;4911428;28;106916;-67
2022/03/04 09:33:37;;;;;;;27.27;13.50;;;;;;;;;;4904345;28;107390;-68
2022/03/04 09:36:03;;;;;;;26.05;12.82;;;;;;;;;;4908640;28;107605;-67
2022/03/04 09:38:30;;;;;;;27.63;13.68;;;;;;;;;;4904209;28;107376;-68
2022/03/04 09:40:57;;;;;;;26.75;13.38;;;;;;;;;;4907737;28;106708;-68
2022/03/04 09:43:24;;;;;;;26.25;13.20;;;;;;;;;;4906087;28;106728;-68
2022/03/04 09:45:51;;;;;;;25.70;12.65;;;;;;;;;;4909647;28;107334;-67
2022/03/04 09:48:17;;;;;;;26.85;12.65;;;;;;;;;;4907574;28;107063;-67
2022/03/04 09:50:46;;;;;;;24.05;12.45;;;;;;;;;;4907721;28;106667;-68
2022/03/04 09:53:12;;;;;;;28.35;13.25;;;;;;;;;;4906443;28;107970;-69
2022/03/04 09:55:39;;;;;;;26.02;12.20;;;;;;;;;;4909194;28;107135;-69
2022/03/04 09:58:10;;;;;;;23.15;11.82;;;;;;;;;;4910135;28;106259;-69
2022/03/04 10:00:37;;;;;;;23.35;11.77;;;;;;;;;;4909006;28;106695;-69
2022/03/04 10:03:04;;;;;;;25.58;10.95;;;;;;;;;;4910621;28;106611;-69
2022/03/04 10:05:30;;;;;;;23.45;11.23;;;;;;;;;;4907660;28;108532;-69
2022/03/04 10:07:57;;;;;;;23.55;11.75;;;;;;;;;;4909636;28;107362;-69
2022/03/04 10:10:23;;;;;;;24.20;10.88;;;;;;;;;;4908370;28;106600;-69
2022/03/04 10:12:55;;;;;;;23.80;11.68;;;;;;;;;;4916888;28;107967;-69
2022/03/04 10:15:23;;;;;;;23.85;11.95;;;;;;;;;;4911351;28;107178;-69
2022/03/04 10:18:02;;;;;;;27.13;12.23;;;;;;;;;;4914012;28;107362;-68
2022/03/04 10:20:33;;;;;;;24.85;12.23;;;;;;;;;;4914889;28;108204;-68
2022/03/04 10:23:17;;;;;;;23.98;12.05;;;;;;;;;;4915700;28;106696;-69
2022/03/04 10:25:44;;;;;;;24.75;12.75;;;;;;;;;;4908752;28;107784;-69
2022/03/04 10:28:11;;;;;;;23.73;11.27;;;;;;;;;;4910854;28;106272;-69
2022/03/04 10:30:41;;;;;;;21.63;11.10;;;;;;;;;;4915460;28;109628;-67
2022/03/04 10:33:08;;;;;;;21.35;11.30;;;;;;;;;;4917145;28;106631;-68
2022/03/04 10:35:36;;;;;;;22.35;11.55;;;;;;;;;;4910589;28;106307;-68
2022/03/04 10:38:04;;;;;;;24.35;11.07;;;;;;;;;;4914597;28;107540;-68
2022/03/04 10:40:32;;;;;;;21.88;11.30;;;;;;;;;;4909980;28;106440;-69
2022/03/04 10:42:59;;;;;;;20.85;11.02;;;;;;;;;;4913832;28;105901;-68
2022/03/04 10:45:33;;;;;;;28.98;12.38;;;;;;;;;;4911234;28;106474;-68
2022/03/04 10:48:07;;;;;;;21.25;11.10;;;;;;;;;;4911690;28;106890;-68
2022/03/04 10:50:35;;;;;;;22.52;11.65;;;;;;;;;;4909601;28;106408;-69
2022/03/04 10:53:03;;;;;;;23.98;13.00;;;;;;;;;;4906544;28;106232;-68
2022/03/04 10:55:32;;;;;;;21.88;12.63;;;;;;;;;;4905108;28;107947;-68
2022/03/04 10:58:00;;;;;;;25.92;12.80;;;;;;;;;;4910003;28;106528;-69
2022/03/04 11:00:28;;;;;;;21.45;11.60;;;;;;;;;;4907062;28;110142;-68
2022/03/04 11:02:55;;;;;;;22.33;12.73;;;;;;;;;;4910896;28;106685;-67
2022/03/04 11:05:22;;;;;;;25.50;12.88;;;;;;;;;;4912303;28;107120;-68
2022/03/04 11:07:49;;;;;;;22.80;12.68;;;;;;;;;;4911155;28;107069;-68
2022/03/04 11:10:17;;;;;;;27.98;12.60;;;;;;;;;;4917115;28;106864;-67
2022/03/04 11:12:45;;;;;;;26.95;13.43;;;;;;;;;;4917834;28;107922;-69
2022/03/04 11:15:13;;;;;;;24.73;12.82;;;;;;;;;;4914426;28;107717;-68
2022/03/04 11:17:39;;;;;;;23.85;13.05;;;;;;;;;;4910097;28;105949;-69
2022/03/04 11:20:06;;;;;;;22.90;12.68;;;;;;;;;;4910298;28;107423;-68
2022/03/04 11:22:33;;;;;;;24.77;12.93;;;;;;;;;;4910988;28;106334;-72
2022/03/04 11:25:04;;;;;;;25.15;13.32;;;;;;;;;;4913473;28;107545;-68
2022/03/04 11:27:32;;;;;;;24.73;13.27;;;;;;;;;;4914318;28;106313;-70
2022/03/04 11:29:59;;;;;;;25.30;13.30;;;;;;;;;;4905231;28;106263;-67
2022/03/04 11:32:29;;;;;;;23.13;13.82;;;;;;;;;;4913188;28;107370;-68
2022/03/04 11:34:56;;;;;;;26.15;14.45;;;;;;;;;;4909897;28;106438;-68
2022/03/04 11:37:23;;;;;;;25.48;13.80;;;;;;;;;;4909676;28;107964;-67
2022/03/04 11:40:00;;;;;;;24.42;14.05;;;;;;;;;;4915159;28;107284;-67
2022/03/04 11:42:35;;;;;;;22.77;13.55;;;;;;;;;;4910775;28;107103;-67
2022/03/04 11:45:02;;;;;;;26.67;13.95;;;;;;;;;;4915402;28;106174;-67
2022/03/04 11:47:30;;;;;;;24.45;14.30;;;;;;;;;;4911401;28;108262;-67
2022/03/04 11:49:56;;;;;;;22.90;13.52;;;;;;;;;;4910666;28;107968;-68
2022/03/04 11:52:27;;;;;;;25.27;13.82;;;;;;;;;;4908900;28;108297;-67
2022/03/04 11:54:56;;;;;;;24.88;14.05;;;;;;;;;;4910622;28;106194;-67
2022/03/04 11:57:22;;;;;;;;;;;;;;;;;;4919108;28;106913;-64
2022/03/04 11:59:49;;;;;;;25.00;14.77;;;;;;;;;;4908124;28;134622;-67
2022/03/04 12:02:19;;;;;;;24.05;14.18;;;;;;;;;;4919089;28;106469;-67
2022/03/04 12:04:46;;;;;;;23.75;13.98;;;;;;;;;;4910135;28;107079;-67
2022/03/04 12:07:13;;;;;;;23.17;14.00;;;;;;;;;;4910589;28;107498;-67
2022/03/04 12:09:47;;;;;;;23.40;13.10;;;;;;;;;;4913569;28;105940;-67
2022/03/04 12:12:20;;;;;;;27.52;14.63;;;;;;;;;;4909352;28;108142;-67
2022/03/04 12:14:52;;;;;;;24.38;14.43;;;;;;;;;;4909659;28;107028;-67
2022/03/04 12:17:19;;;;;;;25.90;14.98;;;;;;;;;;4902422;28;107869;-67
2022/03/04 12:19:47;;;;;;;24.20;14.65;;;;;;;;;;4908431;28;107533;-67
2022/03/04 12:22:14;;;;;;;24.48;14.35;;;;;;;;;;4908725;28;106750;-67
2022/03/04 12:24:51;;;;;;;27.48;14.45;;;;;;;;;;4908926;28;107379;-66
2022/03/04 12:27:34;;;;;;;27.50;15.18;;;;;;;;;;4908311;28;107883;-67
2022/03/04 12:30:14;;;;;;;22.95;13.40;;;;;;;;;;4911065;28;107093;-67
2022/03/04 12:32:45;;;;;;;19.48;12.88;;;;;;;;;;4915398;28;108772;-65
2022/03/04 12:35:14;;;;;;;20.85;13.15;;;;;;;;;;4908938;28;106448;-66
2022/03/04 12:37:40;;;;;;;24.30;14.65;;;;;;;;;;4918374;28;107774;-67
2022/03/04 12:40:08;;;;;;;21.90;13.02;;;;;;;;;;4911468;28;107670;-69
2022/03/04 12:42:34;;;;;;;21.25;13.30;;;;;;;;;;4908976;28;106800;-67
2022/03/04 12:45:01;;;;;;;18.08;13.20;;;;;;;;;;4908693;28;107439;-67
2022/03/04 12:47:27;;;;;;;19.55;11.88;;;;;;;;;;4909085;28;108223;-67
2022/03/04 12:49:54;;;;;;;18.70;10.70;;;;;;;;;;4919039;28;107296;-67
2022/03/04 12:52:20;;;;;;;16.73;11.35;;;;;;;;;;4910377;28;107019;-68
2022/03/04 12:54:47;;;;;;;18.48;12.23;;;;;;;;;;4912377;28;109917;-67
2022/03/04 12:57:13;;;;;;;18.65;12.10;;;;;;;;;;4907637;28;107391;-67
2022/03/04 12:59:47;;;;;;;17.75;10.68;;;;;;;;;;4913534;28;107709;-68
2022/03/04 13:02:15;;;;;;;12.98;9.43;;;;;;;;;;4906266;28;107890;-67
2022/03/04 13:04:54;;;;;;;17.30;10.95;;;;;;;;;;4907961;28;108758;-67
2022/03/04 13:07:21;;;;;;;14.82;10.02;;;;;;;;;;4909308;28;109000;-66
2022/03/04 13:09:48;;;;;;;11.07;7.13;;;;;;;;;;4914740;28;107705;-66
2022/03/04 13:12:19;;;;;;;13.15;7.35;;;;;;;;;;4905204;28;108505;-65
2022/03/04 13:14:45;;;;;;;13.38;7.82;;;;;;;;;;4904876;28;109525;-68
2022/03/04 13:17:12;;;;;;;10.40;7.15;;;;;;;;;;4909757;28;108809;-64
2022/03/04 13:19:41;;;;;;;10.00;6.97;;;;;;;;;;4906145;28;110067;-66
2022/03/04 13:22:15;;;;;;;9.57;7.30;;;;;;;;;;4900021;28;109534;-66
2022/03/04 13:24:42;;;;;;;13.63;7.15;;;;;;;;;;4904670;28;110266;-65
2022/03/04 13:27:11;;;;;;;15.23;8.90;;;;;;;;;;4905965;28;111161;-65
2022/03/04 13:29:44;;;;;;;10.73;7.83;;;;;;;;;;4901875;28;109131;-66
2022/03/04 13:32:15;;;;;;;11.32;7.50;;;;;;;;;;4903336;28;109898;-65
2022/03/04 13:34:42;;;;;;;11.00;7.72;;;;;;;;;;4905864;28;110149;-64
2022/03/04 13:37:11;;;;;;;11.02;7.43;;;;;;;;;;4916513;28;109032;-67
2022/03/04 13:39:38;;;;;;;10.90;7.15;;;;;;;;;;4904668;28;110480;-68
2022/03/04 13:42:07;;;;;;;13.23;6.85;;;;;;;;;;4907969;28;109194;-67
2022/03/04 13:44:34;;;;;;;10.57;6.90;;;;;;;;;;4907649;28;110221;-66
2022/03/04 13:47:07;;;;;;;9.07;6.85;;;;;;;;;;4907515;28;110167;-66
2022/03/04 13:49:42;;;;;;;12.15;7.00;;;;;;;;;;4910657;28;109044;-65
2022/03/04 13:52:09;;;;;;;10.15;7.10;;;;;;;;;;4913969;28;108974;-66
2022/03/04 13:54:50;;;;;;;10.38;7.35;;;;;;;;;;4909317;28;110752;-65
2022/03/04 13:57:26;;;;;;;11.18;8.07;;;;;;;;;;4909349;28;109363;-64
2022/03/04 13:59:52;;;;;;;12.95;8.10;;;;;;;;;;4914090;28;108893;-65
2022/03/04 14:02:19;;;;;;;12.07;8.05;;;;;;;;;;4909246;28;109189;-67
2022/03/04 14:04:55;;;;;;;11.90;7.50;;;;;;;;;;4899565;28;109031;-67
2022/03/04 14:07:22;;;;;;;10.85;7.82;;;;;;;;;;4879589;28;109502;-64